Time;durP1;ratioP1;P1;durP2;ratioP2;P2;SDS_P1;SDS_P2;PMS_P1;PMS_P2;Temp;Humidity;BMP_temperature;BMP_pressure;BME280_temperature;BME280_humidity;BME280_pressure;Samples;Min_cycle;Max_cycle;Signal;HPM_P1;HPM_P2
2022/09/11 00:00:08;;;;;;;21.23;17.10;;;15.40;99.90;;;;;;5097528;27;35634;-57
2022/09/11 00:02:35;;;;;;;18.48;16.40;;;15.40;99.90;;;;;;5097314;27;38215;-57
2022/09/11 00:05:02;;;;;;;20.55;16.85;;;15.40;99.90;;;;;;5099359;27;39390;-58
2022/09/11 00:07:30;;;;;;;21.38;17.65;;;15.50;99.90;;;;;;5100921;27;37900;-59
2022/09/11 00:09:57;;;;;;;20.38;17.58;;;15.60;99.90;;;;;;5100442;27;36614;-59
2022/09/11 00:12:25;;;;;;;21.25;16.85;;;15.50;99.90;;;;;;5101313;27;37983;-59
2022/09/11 00:14:54;;;;;;;21.08;17.27;;;15.50;99.90;;;;;;5099825;27;39191;-59
2022/09/11 00:17:21;;;;;;;21.05;17.02;;;15.60;99.90;;;;;;5100259;27;37887;-59
2022/09/11 00:19:48;;;;;;;22.83;18.15;;;15.60;99.90;;;;;;5100548;27;35607;-59
2022/09/11 00:22:15;;;;;;;20.55;16.70;;;15.60;99.90;;;;;;5101626;27;37421;-57
2022/09/11 00:24:43;;;;;;;20.67;17.08;;;15.70;99.90;;;;;;5100065;27;37873;-57
2022/09/11 00:27:10;;;;;;;20.85;16.67;;;15.70;99.90;;;;;;5098718;27;37976;-58
2022/09/11 00:29:37;;;;;;;22.25;19.08;;;15.70;99.90;;;;;;5099852;27;37837;-57
2022/09/11 00:32:06;;;;;;;19.40;16.75;;;15.70;99.90;;;;;;5098943;27;39088;-57
2022/09/11 00:34:33;;;;;;;21.95;16.92;;;15.70;99.90;;;;;;5099452;27;36950;-59
2022/09/11 00:37:02;;;;;;;18.25;15.65;;;15.70;99.90;;;;;;5100622;27;40437;-59
2022/09/11 00:39:29;;;;;;;20.55;17.27;;;15.70;99.90;;;;;;5100736;27;36827;-59
2022/09/11 00:41:57;;;;;;;18.17;15.88;;;15.70;99.90;;;;;;5103083;27;37510;-59
2022/09/11 00:45:02;;;;;;;17.67;15.30;;;15.80;99.90;;;;;;5102703;27;37166;-57
2022/09/11 00:47:31;;;;;;;18.63;14.93;;;15.80;99.90;;;;;;5102405;27;38732;-57
2022/09/11 00:50:09;;;;;;;19.52;15.93;;;15.80;99.90;;;;;;5100856;27;37679;-57
2022/09/11 00:52:41;;;;;;;17.00;15.20;;;15.70;99.90;;;;;;5102876;27;38790;-59
2022/09/11 00:55:13;;;;;;;16.10;14.38;;;15.70;99.90;;;;;;5102230;27;38633;-59
2022/09/11 00:57:44;;;;;;;20.88;15.15;;;15.70;99.90;;;;;;5100681;27;39051;-59
2022/09/11 01:00:12;;;;;;;16.70;14.75;;;15.70;99.90;;;;;;5102191;27;36782;-59
2022/09/11 01:02:44;;;;;;;17.85;14.93;;;15.70;99.90;;;;;;5101862;27;37748;-59
2022/09/11 01:05:12;;;;;;;16.80;14.75;;;15.70;99.90;;;;;;5103002;27;38920;-57
2022/09/11 01:07:41;;;;;;;16.52;14.43;;;15.70;99.90;;;;;;5102768;27;37766;-59
2022/09/11 01:10:11;;;;;;;17.15;14.48;;;15.70;99.90;;;;;;5102405;27;38207;-59
2022/09/11 01:12:47;;;;;;;16.30;14.32;;;15.60;99.90;;;;;;5104346;27;37316;-59
2022/09/11 01:15:20;;;;;;;17.90;14.70;;;15.60;99.90;;;;;;5102347;27;38100;-59
2022/09/11 01:17:59;;;;;;;18.85;14.70;;;15.50;99.90;;;;;;5099855;27;36729;-57
2022/09/11 01:20:35;;;;;;;15.30;12.55;;;15.50;99.90;;;;;;5101639;27;37154;-57
2022/09/11 01:23:27;;;;;;;15.55;13.10;;;15.50;99.90;;;;;;5102319;27;36336;-57
2022/09/11 01:26:23;;;;;;;15.07;13.48;;;15.50;99.90;;;;;;5102188;27;40039;-57
2022/09/11 01:28:59;;;;;;;16.75;13.85;;;15.50;99.90;;;;;;5101714;27;38249;-58
2022/09/11 01:31:35;;;;;;;16.63;13.98;;;15.40;99.90;;;;;;5101932;27;36998;-57
2022/09/11 01:34:10;;;;;;;14.98;13.38;;;15.40;99.90;;;;;;5101583;27;37422;-57
2022/09/11 01:36:44;;;;;;;16.38;13.57;;;15.40;99.90;;;;;;5103916;27;39621;-57
2022/09/11 01:39:13;;;;;;;15.63;13.00;;;15.40;99.90;;;;;;5102273;27;37572;-57
2022/09/11 01:41:47;;;;;;;15.30;12.57;;;15.40;99.90;;;;;;5101413;27;37630;-59
2022/09/11 01:44:21;;;;;;;16.30;13.10;;;15.40;99.90;;;;;;5102766;27;38903;-59
2022/09/11 01:46:51;;;;;;;18.48;14.32;;;15.40;99.90;;;;;;5101851;27;38314;-59
2022/09/11 01:49:24;;;;;;;15.95;13.10;;;15.30;99.90;;;;;;5102069;27;36559;-59
2022/09/11 01:51:56;;;;;;;15.05;13.45;;;15.30;99.90;;;;;;5100906;27;36786;-59
2022/09/11 01:54:30;;;;;;;14.15;12.55;;;15.30;99.90;;;;;;5102575;27;38395;-59
2022/09/11 01:57:02;;;;;;;17.10;12.57;;;15.30;99.90;;;;;;5101276;27;38130;-59
2022/09/11 01:59:36;;;;;;;13.00;10.65;;;15.20;99.90;;;;;;5100360;27;37594;-59
2022/09/11 02:02:06;;;;;;;12.27;10.88;;;15.30;99.90;;;;;;5101321;27;36913;-57
2022/09/11 02:04:38;;;;;;;14.77;12.52;;;15.30;99.90;;;;;;5101862;27;35991;-57
2022/09/11 02:07:10;;;;;;;15.07;13.38;;;15.20;99.90;;;;;;5102853;27;38912;-59
2022/09/11 02:09:44;;;;;;;15.45;12.40;;;15.20;99.90;;;;;;5102245;27;38497;-59
2022/09/11 02:12:15;;;;;;;14.68;11.93;;;15.20;99.90;;;;;;5101407;27;38066;-59
2022/09/11 02:14:46;;;;;;;12.73;11.30;;;15.20;99.90;;;;;;5100591;27;38066;-59
2022/09/11 02:17:23;;;;;;;12.93;11.35;;;15.20;99.90;;;;;;5103375;27;38982;-59
2022/09/11 02:19:52;;;;;;;17.60;11.63;;;15.20;99.90;;;;;;5099972;27;37947;-59
2022/09/11 02:22:20;;;;;;;13.77;10.65;;;15.20;99.90;;;;;;5101753;27;37852;-57
2022/09/11 02:24:47;;;;;;;13.43;11.35;;;15.20;99.90;;;;;;5101786;27;38993;-57
2022/09/11 02:27:20;;;;;;;12.55;10.73;;;15.20;99.90;;;;;;5102411;27;37088;-57
2022/09/11 02:29:49;;;;;;;17.02;12.07;;;15.20;99.90;;;;;;5102302;27;38840;-57
2022/09/11 02:32:18;;;;;;;11.77;10.00;;;15.20;99.90;;;;;;5098656;27;36838;-59
2022/09/11 02:34:47;;;;;;;13.30;10.57;;;15.10;99.90;;;;;;5101296;27;38295;-59
2022/09/11 02:37:24;;;;;;;13.00;11.35;;;15.10;99.90;;;;;;5099415;27;40406;-59
2022/09/11 02:40:07;;;;;;;10.55;9.45;;;15.10;99.90;;;;;;5099498;27;37707;-57
2022/09/11 02:42:47;;;;;;;12.32;10.23;;;15.10;99.90;;;;;;5102913;27;36232;-57
2022/09/11 02:45:28;;;;;;;12.95;10.35;;;15.10;99.90;;;;;;5101460;27;37295;-57
2022/09/11 02:48:05;;;;;;;10.90;8.85;;;15.10;99.90;;;;;;5101459;27;38325;-57
2022/09/11 02:50:40;;;;;;;11.05;9.02;;;15.10;99.90;;;;;;5101786;27;37848;-58
2022/09/11 02:53:14;;;;;;;11.60;9.18;;;15.10;99.90;;;;;;5100858;27;36524;-57
2022/09/11 02:55:52;;;;;;;10.98;7.38;;;15.10;99.90;;;;;;5101476;27;38228;-57
2022/09/11 02:58:25;;;;;;;9.23;6.65;;;15.10;99.90;;;;;;5099885;27;38615;-59
2022/09/11 03:00:57;;;;;;;9.10;6.68;;;15.10;99.90;;;;;;5099993;27;39366;-59
2022/09/11 03:03:25;;;;;;;11.15;6.57;;;15.00;99.90;;;;;;5100605;27;36335;-57
2022/09/11 03:05:53;;;;;;;7.95;6.20;;;15.00;99.90;;;;;;5100894;27;37792;-57
2022/09/11 03:08:20;;;;;;;9.23;6.43;;;15.00;99.90;;;;;;5100867;27;40406;-57
2022/09/11 03:10:48;;;;;;;8.75;5.45;;;15.00;99.90;;;;;;5100357;27;38309;-59
2022/09/11 03:13:16;;;;;;;10.38;5.97;;;14.90;99.90;;;;;;5101465;27;35474;-59
2022/09/11 03:15:43;;;;;;;10.70;6.28;;;15.00;99.90;;;;;;5100759;27;37246;-59
2022/09/11 03:18:14;;;;;;;10.32;6.80;;;14.90;99.90;;;;;;5100840;27;38319;-59
2022/09/11 03:20:45;;;;;;;10.57;8.10;;;14.90;99.90;;;;;;5102147;27;38881;-59
2022/09/11 03:23:13;;;;;;;17.20;9.18;;;14.90;99.90;;;;;;5103571;27;37354;-57
2022/09/11 03:25:40;;;;;;;12.57;8.77;;;14.90;99.90;;;;;;5103026;27;37740;-57
2022/09/11 03:28:08;;;;;;;13.02;8.65;;;14.90;99.90;;;;;;5104104;27;39472;-57
2022/09/11 03:30:35;;;;;;;14.50;8.75;;;14.90;99.90;;;;;;5104339;27;39050;-57
2022/09/11 03:33:03;;;;;;;12.02;8.40;;;14.90;99.90;;;;;;5105665;27;35599;-59
2022/09/11 03:35:32;;;;;;;11.05;9.05;;;15.00;99.90;;;;;;5104801;27;38044;-57
2022/09/11 03:37:59;;;;;;;12.05;8.88;;;14.90;99.90;;;;;;5104373;27;39533;-57
2022/09/11 03:40:26;;;;;;;11.70;8.13;;;15.00;99.90;;;;;;5103106;27;38817;-57
2022/09/11 03:42:54;;;;;;;9.80;7.70;;;15.00;99.90;;;;;;5104467;27;35176;-57
2022/09/11 03:45:21;;;;;;;9.25;5.47;;;15.00;99.90;;;;;;5104235;27;37954;-59
2022/09/11 03:47:48;;;;;;;10.88;7.15;;;15.00;99.90;;;;;;5104752;27;38060;-59
2022/09/11 03:50:16;;;;;;;9.00;7.07;;;15.00;99.90;;;;;;5103480;27;37393;-59
2022/09/11 03:52:44;;;;;;;11.65;7.43;;;15.00;99.90;;;;;;5105371;27;36371;-59
2022/09/11 03:55:12;;;;;;;12.43;7.53;;;14.90;99.90;;;;;;5105353;27;36413;-59
2022/09/11 03:57:39;;;;;;;10.85;8.20;;;14.90;99.90;;;;;;5102743;27;36859;-59
2022/09/11 04:00:08;;;;;;;9.88;6.53;;;14.90;99.90;;;;;;5105406;27;38802;-59
2022/09/11 04:02:36;;;;;;;8.30;6.97;;;14.90;99.90;;;;;;5102794;27;35484;-59
2022/09/11 04:05:03;;;;;;;8.23;5.95;;;14.90;99.90;;;;;;5106018;27;38665;-59
2022/09/11 04:07:31;;;;;;;6.55;4.15;;;14.90;99.90;;;;;;5104907;27;40793;-59
2022/09/11 04:09:59;;;;;;;6.03;3.22;;;14.90;99.90;;;;;;5104086;27;35690;-57
2022/09/11 04:12:27;;;;;;;6.25;3.65;;;14.80;99.90;;;;;;5105154;27;35405;-57
2022/09/11 04:14:55;;;;;;;5.18;3.30;;;14.80;99.90;;;;;;5106369;27;36319;-59
2022/09/11 04:17:23;;;;;;;6.10;3.47;;;14.80;99.90;;;;;;5109248;27;38084;-59
2022/09/11 04:19:50;;;;;;;6.95;3.80;;;14.70;99.90;;;;;;5107662;27;38140;-57
2022/09/11 04:22:17;;;;;;;4.18;2.28;;;14.70;99.90;;;;;;5107113;27;37964;-59
2022/09/11 04:24:45;;;;;;;5.45;3.80;;;14.70;99.90;;;;;;5107742;27;38923;-59
2022/09/11 04:27:14;;;;;;;5.53;3.90;;;14.70;99.90;;;;;;5107961;27;38186;-58
2022/09/11 04:29:41;;;;;;;8.02;4.18;;;14.60;99.90;;;;;;5107864;27;38124;-57
2022/09/11 04:32:10;;;;;;;6.75;4.47;;;14.60;99.90;;;;;;5108151;27;37248;-57
2022/09/11 04:34:37;;;;;;;9.05;5.18;;;14.60;99.90;;;;;;5107928;27;37533;-57
2022/09/11 04:37:05;;;;;;;7.45;5.55;;;14.60;99.90;;;;;;5106160;27;38313;-57
2022/09/11 04:39:33;;;;;;;8.10;5.53;;;14.60;99.90;;;;;;5107446;27;37832;-57
2022/09/11 04:42:00;;;;;;;9.00;5.75;;;14.60;99.90;;;;;;5106811;27;37229;-57
2022/09/11 04:44:29;;;;;;;8.98;5.97;;;14.60;99.90;;;;;;5106877;27;36389;-59
2022/09/11 04:46:56;;;;;;;10.35;6.22;;;14.70;99.90;;;;;;5108863;27;37800;-57
2022/09/11 04:49:24;;;;;;;8.68;6.43;;;14.60;99.90;;;;;;5108176;27;37760;-57
2022/09/11 04:51:51;;;;;;;8.85;6.63;;;14.70;99.90;;;;;;5108586;27;36455;-57
2022/09/11 04:54:20;;;;;;;7.95;6.13;;;14.60;99.90;;;;;;5107401;27;36305;-57
2022/09/11 04:56:47;;;;;;;7.82;5.95;;;14.70;99.90;;;;;;5107361;27;38307;-57
2022/09/11 04:59:16;;;;;;;8.43;6.53;;;14.70;99.90;;;;;;5108185;27;39696;-57
2022/09/11 05:01:46;;;;;;;8.90;5.85;;;14.70;99.90;;;;;;5108140;27;36304;-59
2022/09/11 05:04:14;;;;;;;7.60;6.00;;;14.70;99.90;;;;;;5106355;27;38151;-58
2022/09/11 05:06:44;;;;;;;7.78;6.47;;;14.70;99.90;;;;;;5107598;27;37023;-59
2022/09/11 05:09:11;;;;;;;8.35;6.82;;;14.60;99.90;;;;;;5103957;27;37573;-57
2022/09/11 05:11:39;;;;;;;9.20;6.13;;;14.60;99.90;;;;;;5106377;27;36647;-57
2022/09/11 05:14:07;;;;;;;7.65;6.20;;;14.70;99.90;;;;;;5106981;27;37385;-57
2022/09/11 05:16:35;;;;;;;8.38;5.97;;;14.60;99.90;;;;;;5106147;27;40350;-59
2022/09/11 05:19:05;;;;;;;9.60;5.85;;;14.60;99.90;;;;;;5107574;27;37108;-59
2022/09/11 05:21:33;;;;;;;7.07;6.00;;;14.70;99.90;;;;;;5107553;27;35371;-59
2022/09/11 05:24:02;;;;;;;6.93;5.10;;;14.70;99.90;;;;;;5104158;27;37375;-57
2022/09/11 05:26:31;;;;;;;5.95;4.97;;;14.60;99.90;;;;;;5106252;27;37085;-57
2022/09/11 05:29:00;;;;;;;7.75;5.13;;;14.60;99.90;;;;;;5105299;27;37557;-57
2022/09/11 05:31:28;;;;;;;5.50;2.42;;;14.70;99.90;;;;;;5107537;27;36731;-57
2022/09/11 05:33:57;;;;;;;2.70;1.70;;;14.60;99.90;;;;;;5107080;27;38699;-59
2022/09/11 05:36:27;;;;;;;2.88;1.50;;;14.60;99.90;;;;;;5106412;27;38702;-59
2022/09/11 05:38:54;;;;;;;3.17;1.70;;;14.60;99.90;;;;;;5106476;27;36529;-59
2022/09/11 05:41:22;;;;;;;2.92;1.80;;;14.50;99.90;;;;;;5106684;27;36426;-59
2022/09/11 05:43:50;;;;;;;3.22;1.73;;;14.50;99.90;;;;;;5105821;27;37508;-59
2022/09/11 05:46:18;;;;;;;4.97;1.83;;;14.50;99.90;;;;;;5105152;27;37141;-59
2022/09/11 05:48:46;;;;;;;4.90;1.90;;;14.50;99.90;;;;;;5106627;27;37787;-57
2022/09/11 05:51:15;;;;;;;3.90;2.50;;;14.50;99.90;;;;;;5107660;27;36433;-57
2022/09/11 05:53:44;;;;;;;6.25;3.72;;;14.50;99.90;;;;;;5106226;27;36479;-57
2022/09/11 05:56:14;;;;;;;10.23;5.57;;;14.60;99.90;;;;;;5106197;27;38238;-57
2022/09/11 05:58:42;;;;;;;6.50;3.45;;;14.60;99.90;;;;;;5106204;27;37682;-58
2022/09/11 06:01:11;;;;;;;6.50;4.20;;;14.70;99.90;;;;;;5107198;27;37261;-59
2022/09/11 06:03:39;;;;;;;6.43;3.80;;;14.70;99.90;;;;;;5106235;27;37507;-57
2022/09/11 06:06:08;;;;;;;8.48;4.07;;;14.80;99.90;;;;;;5105947;27;39086;-59
2022/09/11 06:08:36;;;;;;;6.75;4.07;;;14.90;99.90;;;;;;5104888;27;39054;-59
2022/09/11 06:11:07;;;;;;;6.47;3.85;;;14.90;99.90;;;;;;5105077;27;37945;-59
2022/09/11 06:13:37;;;;;;;5.28;3.53;;;14.90;99.90;;;;;;5103800;27;37627;-59
2022/09/11 06:16:07;;;;;;;6.75;4.82;;;15.00;99.90;;;;;;5106873;27;38029;-59
2022/09/11 06:18:34;;;;;;;5.80;4.60;;;15.00;99.90;;;;;;5105110;27;37683;-59
2022/09/11 06:21:06;;;;;;;9.32;5.18;;;15.10;99.90;;;;;;5106025;27;36234;-59
2022/09/11 06:23:34;;;;;;;9.75;6.63;;;15.20;99.90;;;;;;5104346;27;37285;-59
2022/09/11 06:26:07;;;;;;;10.77;7.28;;;15.20;99.90;;;;;;5104645;27;39358;-59
2022/09/11 06:28:35;;;;;;;;;;;15.30;99.90;;;;;;5106450;27;38967;-59
2022/09/11 06:31:02;;;;;;;9.40;7.40;;;15.30;99.90;;;;;;5104377;27;35535;-57
2022/09/11 06:33:33;;;;;;;10.75;9.60;;;15.30;99.90;;;;;;5102450;27;37859;-57
2022/09/11 06:36:02;;;;;;;9.20;7.45;;;15.40;99.90;;;;;;5104579;27;38115;-57
2022/09/11 06:38:31;;;;;;;10.73;8.38;;;15.50;99.90;;;;;;5105174;27;38858;-59
2022/09/11 06:41:01;;;;;;;11.27;8.55;;;15.50;99.90;;;;;;5104777;27;37098;-59
2022/09/11 06:43:30;;;;;;;11.43;8.40;;;15.50;99.90;;;;;;5105021;27;39150;-57
2022/09/11 06:46:04;;;;;;;10.20;7.82;;;15.60;99.90;;;;;;5105557;27;38018;-59
2022/09/11 06:48:31;;;;;;;9.02;7.38;;;15.70;99.90;;;;;;5104753;27;37847;-59
2022/09/11 06:51:02;;;;;;;13.65;8.13;;;15.70;99.90;;;;;;5105149;27;35994;-59
2022/09/11 06:53:29;;;;;;;8.73;7.38;;;15.80;99.90;;;;;;5105130;27;37563;-60
2022/09/11 06:55:59;;;;;;;10.75;7.57;;;15.80;99.90;;;;;;5105362;27;39485;-59
2022/09/11 06:58:28;;;;;;;10.43;8.00;;;15.80;99.90;;;;;;5104108;27;37914;-59
2022/09/11 07:00:58;;;;;;;9.13;7.53;;;15.90;99.90;;;;;;5105172;27;36821;-59
2022/09/11 07:03:25;;;;;;;10.45;7.25;;;16.00;99.90;;;;;;5103671;27;37957;-59
2022/09/11 07:05:53;;;;;;;12.35;8.07;;;16.00;99.90;;;;;;5104531;27;38500;-59
2022/09/11 07:08:20;;;;;;;10.77;7.43;;;16.10;99.90;;;;;;5105943;27;39291;-59
2022/09/11 07:10:47;;;;;;;10.48;8.55;;;16.10;99.90;;;;;;5105082;27;36411;-59
2022/09/11 07:13:15;;;;;;;12.48;8.90;;;16.20;99.90;;;;;;5105426;27;37725;-59
2022/09/11 07:15:42;;;;;;;8.95;7.90;;;16.20;99.90;;;;;;5105296;27;38192;-59
2022/09/11 07:18:11;;;;;;;11.13;8.45;;;16.30;99.90;;;;;;5104733;27;40440;-59
2022/09/11 07:20:40;;;;;;;11.75;8.80;;;16.30;99.90;;;;;;5104293;27;38695;-57
2022/09/11 07:23:07;;;;;;;12.60;9.15;;;16.40;99.90;;;;;;5105112;27;37381;-57
2022/09/11 07:25:37;;;;;;;12.43;9.40;;;16.50;99.90;;;;;;5104719;27;38761;-57
2022/09/11 07:28:04;;;;;;;11.32;8.82;;;16.50;99.90;;;;;;5104475;27;36012;-59
2022/09/11 07:30:32;;;;;;;13.65;9.35;;;16.60;99.90;;;;;;5105532;27;36162;-59
2022/09/11 07:32:59;;;;;;;13.70;9.43;;;16.60;99.90;;;;;;5104076;27;37631;-59
2022/09/11 07:35:28;;;;;;;12.18;9.48;;;16.70;99.90;;;;;;5102898;27;37980;-59
2022/09/11 07:37:55;;;;;;;13.77;9.68;;;16.70;99.90;;;;;;5102261;27;36674;-58
2022/09/11 07:40:22;;;;;;;11.30;9.88;;;16.80;99.90;;;;;;5104135;27;37436;-57
2022/09/11 07:42:50;;;;;;;12.13;9.57;;;16.80;99.90;;;;;;5102986;27;37672;-57
2022/09/11 07:45:17;;;;;;;13.68;10.32;;;16.90;99.90;;;;;;5103632;27;36809;-57
2022/09/11 07:47:44;;;;;;;12.35;10.05;;;17.00;99.90;;;;;;5103560;27;38223;-57
2022/09/11 07:50:12;;;;;;;12.00;10.25;;;17.00;99.90;;;;;;5104118;27;36812;-57
2022/09/11 07:52:41;;;;;;;11.80;9.65;;;17.10;99.90;;;;;;5102550;27;37738;-57
2022/09/11 07:55:09;;;;;;;14.32;9.38;;;17.20;99.90;;;;;;5104203;27;38881;-57
2022/09/11 07:57:36;;;;;;;11.07;9.52;;;17.20;99.90;;;;;;5102286;27;36610;-57
2022/09/11 08:00:05;;;;;;;13.32;9.32;;;17.30;99.90;;;;;;5104663;27;36501;-57
2022/09/11 08:02:32;;;;;;;14.00;9.77;;;17.30;99.90;;;;;;5099937;27;38496;-57
2022/09/11 08:05:00;;;;;;;11.00;9.27;;;17.40;99.90;;;;;;5103029;27;38173;-57
2022/09/11 08:07:27;;;;;;;10.18;7.93;;;17.50;99.90;;;;;;5097997;27;37643;-57
2022/09/11 08:09:56;;;;;;;14.52;7.38;;;17.50;99.90;;;;;;5102151;27;36421;-57
2022/09/11 08:12:23;;;;;;;14.63;8.70;;;17.50;99.90;;;;;;5101865;27;38021;-58
2022/09/11 08:14:51;;;;;;;10.38;7.93;;;17.60;99.90;;;;;;5100366;27;38746;-57
2022/09/11 08:17:18;;;;;;;11.40;8.02;;;17.60;99.90;;;;;;5100595;27;39071;-57
2022/09/11 08:19:45;;;;;;;13.63;5.32;;;17.70;99.90;;;;;;5094293;27;36326;-57
2022/09/11 08:22:13;;;;;;;9.52;4.95;;;17.80;99.90;;;;;;5098503;27;37748;-59
2022/09/11 08:24:40;;;;;;;9.45;4.38;;;17.80;99.90;;;;;;5101374;27;37684;-60
2022/09/11 08:27:09;;;;;;;9.23;4.03;;;17.90;99.90;;;;;;5096011;27;37998;-60
2022/09/11 08:29:36;;;;;;;6.93;4.10;;;18.00;99.90;;;;;;5098547;27;36442;-60
2022/09/11 08:32:04;;;;;;;6.60;2.95;;;18.10;99.90;;;;;;5098307;27;37377;-60
2022/09/11 08:34:31;;;;;;;5.65;2.63;;;18.20;99.90;;;;;;5099379;27;39027;-59
2022/09/11 08:36:58;;;;;;;7.38;3.03;;;18.30;99.90;;;;;;5099959;27;37811;-59
2022/09/11 08:39:26;;;;;;;4.85;2.60;;;18.40;99.90;;;;;;5098179;27;35476;-59
2022/09/11 08:41:59;;;;;;;4.95;2.10;;;18.40;99.90;;;;;;5097846;27;40360;-59
2022/09/11 08:44:31;;;;;;;7.78;2.58;;;18.50;99.90;;;;;;5097778;27;37967;-60
2022/09/11 08:47:05;;;;;;;8.05;3.80;;;18.60;99.90;;;;;;5099690;27;39625;-60
2022/09/11 08:49:38;;;;;;;8.13;3.00;;;18.70;99.90;;;;;;5099054;27;35799;-60
2022/09/11 08:52:06;;;;;;;6.57;2.00;;;18.90;99.90;;;;;;5096788;27;37387;-59
2022/09/11 08:54:36;;;;;;;6.78;2.10;;;19.00;99.90;;;;;;5098529;27;38375;-60
2022/09/11 08:57:13;;;;;;;5.72;2.45;;;19.00;99.90;;;;;;5098108;27;36567;-60
2022/09/11 09:00:00;;;;;;;5.15;2.15;;;19.10;99.90;;;;;;5098665;27;36930;-60
2022/09/11 09:02:50;;;;;;;5.93;2.05;;;19.10;99.90;;;;;;5100693;27;36434;-60
2022/09/11 09:05:31;;;;;;;4.22;2.05;;;19.10;99.90;;;;;;5102340;27;37114;-58
2022/09/11 09:08:09;;;;;;;8.68;2.45;;;19.20;99.90;;;;;;5099145;27;37678;-58
2022/09/11 09:10:50;;;;;;;6.03;3.03;;;19.40;99.90;;;;;;5101689;27;36771;-61
2022/09/11 09:13:45;;;;;;;5.18;3.17;;;19.50;99.90;;;;;;5101726;27;38968;-60
2022/09/11 09:16:25;;;;;;;7.97;3.67;;;19.60;99.90;;;;;;5101838;27;38532;-60
2022/09/11 09:18:59;;;;;;;7.22;3.05;;;19.50;99.90;;;;;;5101686;27;37766;-60
2022/09/11 09:21:31;;;;;;;9.43;4.07;;;19.50;99.90;;;;;;5102667;27;36713;-60
2022/09/11 09:24:03;;;;;;;9.82;4.90;;;19.50;99.90;;;;;;5101584;27;39217;-60
2022/09/11 09:26:37;;;;;;;7.97;3.90;;;19.40;99.90;;;;;;5100905;27;38272;-59
2022/09/11 09:29:10;;;;;;;9.48;3.70;;;19.40;99.90;;;;;;5101010;27;38088;-59
2022/09/11 09:31:42;;;;;;;7.70;3.72;;;19.30;99.90;;;;;;5099704;27;35592;-60
2022/09/11 09:34:17;;;;;;;7.07;3.20;;;19.30;99.90;;;;;;5101287;27;36004;-61
2022/09/11 09:36:55;;;;;;;8.57;3.47;;;19.20;99.90;;;;;;5102252;27;38370;-59
2022/09/11 09:39:24;;;;;;;7.10;3.30;;;19.10;99.90;;;;;;5100925;27;38906;-61
2022/09/11 09:42:27;;;;;;;8.73;5.30;;;19.00;99.90;;;;;;5101006;27;37795;-61
2022/09/11 09:45:17;;;;;;;8.77;5.20;;;18.90;99.90;;;;;;5102073;27;37367;-61
2022/09/11 09:47:49;;;;;;;7.30;4.60;;;18.90;99.90;;;;;;5099554;27;39265;-60
2022/09/11 09:50:20;;;;;;;9.02;4.97;;;18.80;99.90;;;;;;5100239;27;37898;-60
2022/09/11 09:52:49;;;;;;;7.03;4.93;;;18.80;99.90;;;;;;5102397;27;39096;-58
2022/09/11 09:55:18;;;;;;;8.23;5.03;;;18.70;99.90;;;;;;5102145;27;37394;-58
2022/09/11 09:57:46;;;;;;;6.57;4.65;;;18.60;99.90;;;;;;5101903;27;38866;-60
2022/09/11 10:00:18;;;;;;;9.90;4.88;;;18.60;99.90;;;;;;5100513;27;36818;-60
2022/09/11 10:02:52;;;;;;;7.18;3.95;;;18.60;99.90;;;;;;5100650;27;37145;-60
2022/09/11 10:05:24;;;;;;;6.05;3.75;;;18.60;99.90;;;;;;5099744;27;37993;-60
2022/09/11 10:07:53;;;;;;;7.75;3.72;;;18.60;99.90;;;;;;5099814;27;38296;-60
2022/09/11 10:10:25;;;;;;;8.35;4.00;;;18.60;99.90;;;;;;5101742;27;38022;-60
2022/09/11 10:12:53;;;;;;;10.38;4.45;;;18.60;99.90;;;;;;5099731;27;37920;-61
2022/09/11 10:15:22;;;;;;;8.02;4.00;;;18.60;99.90;;;;;;5094400;27;37640;-61
2022/09/11 10:17:52;;;;;;;8.82;4.18;;;18.60;99.90;;;;;;5103436;27;38011;-60
2022/09/11 10:20:28;;;;;;;8.95;4.00;;;18.60;99.90;;;;;;5103604;27;37771;-60
2022/09/11 10:22:56;;;;;;;7.32;3.78;;;18.60;99.90;;;;;;5103841;27;36773;-60
2022/09/11 10:25:25;;;;;;;7.80;4.22;;;18.70;99.90;;;;;;5102996;27;37547;-60
2022/09/11 10:28:07;;;;;;;6.70;4.07;;;18.90;99.90;;;;;;5103399;27;38297;-61
2022/09/11 10:30:37;;;;;;;7.97;3.45;;;19.00;99.90;;;;;;5102030;27;37537;-61
2022/09/11 10:33:16;;;;;;;7.55;2.92;;;19.10;99.90;;;;;;5102314;27;37116;-60
2022/09/11 10:35:51;;;;;;;5.45;2.28;;;19.10;99.90;;;;;;5102218;27;37196;-60
2022/09/11 10:38:20;;;;;;;4.28;1.77;;;19.30;99.90;;;;;;5104077;27;39438;-61
2022/09/11 10:41:03;;;;;;;5.88;2.22;;;19.60;99.90;;;;;;5100406;27;38693;-61
2022/09/11 10:43:36;;;;;;;2.35;1.27;;;19.90;99.90;;;;;;5103968;27;35426;-58
2022/09/11 10:46:19;;;;;;;4.78;1.63;;;20.20;99.90;;;;;;5103325;27;37447;-60
2022/09/11 10:48:54;;;;;;;4.60;2.30;;;20.40;99.90;;;;;;5100486;27;39105;-61
2022/09/11 10:51:23;;;;;;;6.60;1.60;;;20.70;99.90;;;;;;5104898;27;37647;-61
2022/09/11 10:54:13;;;;;;;3.60;1.40;;;20.80;99.90;;;;;;5104648;27;37688;-58
2022/09/11 10:56:59;;;;;;;4.95;1.40;;;20.80;99.90;;;;;;5102908;27;40691;-58
2022/09/11 10:59:35;;;;;;;4.47;1.92;;;20.70;99.90;;;;;;5101846;27;38397;-58
2022/09/11 11:02:03;;;;;;;6.93;1.85;;;20.60;99.90;;;;;;5102291;27;36532;-58
2022/09/11 11:04:32;;;;;;;8.00;1.80;;;20.40;99.90;;;;;;5103842;27;36268;-58
2022/09/11 11:07:10;;;;;;;3.67;1.52;;;20.30;99.90;;;;;;5104287;27;38925;-60
2022/09/11 11:09:50;;;;;;;3.75;1.50;;;20.10;99.90;;;;;;5104219;27;37930;-61
2022/09/11 11:12:30;;;;;;;5.10;1.75;;;20.00;99.90;;;;;;5104078;27;36759;-58
2022/09/11 11:15:25;;;;;;;4.43;1.85;;;19.90;99.90;;;;;;5103745;27;36075;-58
2022/09/11 11:18:06;;;;;;;6.47;1.85;;;19.80;99.90;;;;;;5103935;27;38326;-60
2022/09/11 11:20:44;;;;;;;3.97;1.75;;;19.70;99.90;;;;;;5103943;27;38357;-60
2022/09/11 11:23:39;;;;;;;4.63;1.85;;;19.70;99.90;;;;;;5102955;27;37598;-60
2022/09/11 11:26:20;;;;;;;4.97;1.52;;;19.60;99.90;;;;;;5097549;27;36654;-60
2022/09/11 11:29:02;;;;;;;5.63;1.95;;;19.70;99.90;;;;;;5101250;27;37636;-60
2022/09/11 11:31:55;;;;;;;4.20;1.70;;;20.00;99.90;;;;;;5097046;27;38248;-61
2022/09/11 11:34:41;;;;;;;7.60;1.90;;;20.30;99.90;;;;;;5099564;27;34057;-59
2022/09/11 11:37:16;;;;;;;8.98;1.70;;;20.60;99.90;;;;;;5100165;27;36354;-61
2022/09/11 11:39:51;;;;;;;3.67;1.63;;;20.70;99.90;;;;;;5100918;27;38001;-59
2022/09/11 11:42:25;;;;;;;4.82;1.70;;;20.80;99.90;;;;;;5097476;27;37521;-59
2022/09/11 11:44:57;;;;;;;3.42;1.15;;;20.90;99.90;;;;;;5100908;27;36736;-59
2022/09/11 11:47:30;;;;;;;6.10;1.13;;;20.90;99.90;;;;;;5100382;27;36771;-61
2022/09/11 11:50:06;;;;;;;4.90;1.50;;;20.90;99.90;;;;;;5098747;27;38567;-61
2022/09/11 11:52:45;;;;;;;5.78;1.90;;;20.90;99.90;;;;;;5096226;27;38513;-59
2022/09/11 11:55:17;;;;;;;3.25;1.40;;;21.00;99.90;;;;;;5098200;27;37879;-61
2022/09/11 11:57:54;;;;;;;5.22;1.70;;;21.00;99.90;;;;;;5098932;27;35395;-59
2022/09/11 12:00:21;;;;;;;5.63;1.55;;;20.90;99.90;;;;;;5099416;27;39007;-61
2022/09/11 12:02:55;;;;;;;5.90;1.92;;;20.80;99.90;;;;;;5095700;27;38420;-59
2022/09/11 12:05:24;;;;;;;5.03;2.10;;;20.80;99.90;;;;;;5097766;27;38095;-61
2022/09/11 12:07:53;;;;;;;5.50;1.80;;;20.70;99.90;;;;;;5099367;27;36576;-59
2022/09/11 12:10:28;;;;;;;6.85;1.27;;;20.60;99.90;;;;;;5098765;27;38412;-61
2022/09/11 12:12:59;;;;;;;7.38;1.95;;;20.50;99.90;;;;;;5098708;27;38992;-61
2022/09/11 12:15:31;;;;;;;2.63;1.00;;;20.40;99.90;;;;;;5099880;27;38636;-61
2022/09/11 12:18:01;;;;;;;5.22;1.60;;;20.40;99.90;;;;;;5099575;27;37252;-61
2022/09/11 12:20:37;;;;;;;8.15;1.80;;;20.40;99.90;;;;;;5101207;27;36392;-62
2022/09/11 12:23:23;;;;;;;6.35;1.75;;;20.40;99.90;;;;;;5099907;27;39511;-61
2022/09/11 12:26:18;;;;;;;6.70;1.50;;;20.40;99.90;;;;;;5099897;27;37905;-59
2022/09/11 12:28:47;;;;;;;3.25;1.50;;;20.40;99.90;;;;;;5090613;27;36395;-59
2022/09/11 12:31:15;;;;;;;6.25;2.42;;;20.50;99.90;;;;;;5099742;27;36416;-59
2022/09/11 12:33:56;;;;;;;3.90;1.60;;;20.60;99.90;;;;;;5097366;27;38126;-61
2022/09/11 12:36:35;;;;;;;3.00;1.20;;;20.70;99.90;;;;;;5104450;27;39085;-59
2022/09/11 12:39:15;;;;;;;5.07;1.50;;;20.70;99.90;;;;;;5103280;27;36351;-59
2022/09/11 12:41:44;;;;;;;4.07;1.27;;;20.70;99.90;;;;;;5104128;27;37633;-58
2022/09/11 12:44:30;;;;;;;3.13;1.10;;;20.80;99.90;;;;;;5100296;27;38040;-59
2022/09/11 12:47:15;;;;;;;5.72;1.67;;;20.90;99.90;;;;;;5105553;27;37752;-59
2022/09/11 12:49:52;;;;;;;4.78;1.30;;;20.90;99.90;;;;;;5102910;27;37064;-60
2022/09/11 12:52:29;;;;;;;3.10;1.42;;;20.90;99.70;;;;;;5107070;27;39014;-61
2022/09/11 12:55:02;;;;;;;4.97;1.80;;;21.00;99.90;;;;;;5106387;27;39151;-61
2022/09/11 12:57:34;;;;;;;3.70;1.90;;;21.10;99.90;;;;;;5103050;27;37372;-58
2022/09/11 13:00:05;;;;;;;3.50;1.77;;;21.10;99.90;;;;;;5103337;27;36273;-59
2022/09/11 13:02:36;;;;;;;5.80;1.85;;;21.10;99.90;;;;;;5103112;27;37610;-58